createdAt,value
2023-09-22T00:00:44.470Z,2.35
2023-09-22T00:03:12.034Z,2.63
2023-09-22T00:05:39.075Z,2.47
2023-09-22T00:08:07.447Z,2.67
2023-09-22T00:10:35.107Z,2.65
2023-09-22T00:13:02.613Z,2.85
2023-09-22T00:15:29.740Z,2.70
2023-09-22T00:17:57.110Z,3.10
2023-09-22T00:20:24.481Z,2.90
2023-09-22T00:22:51.599Z,3.60
2023-09-22T00:25:18.752Z,2.95
2023-09-22T00:27:45.867Z,3.08
2023-09-22T00:30:13.049Z,3.63
2023-09-22T00:32:41.229Z,2.80
2023-09-22T00:35:13.067Z,3.40
2023-09-22T00:37:41.884Z,2.80
2023-09-22T00:40:10.268Z,2.53
2023-09-22T00:42:38.254Z,2.40
2023-09-22T00:45:06.507Z,2.80
2023-09-22T00:47:34.108Z,2.78
2023-09-22T00:50:01.893Z,2.83
2023-09-22T00:52:30.653Z,3.20
2023-09-22T00:54:59.142Z,3.58
2023-09-22T00:57:26.428Z,3.05
2023-09-22T00:59:54.468Z,3.00
2023-09-22T01:02:23.547Z,3.55
2023-09-22T01:04:51.102Z,2.85
2023-09-22T01:07:18.448Z,2.80
2023-09-22T01:09:46.250Z,3.60
2023-09-22T01:12:14.340Z,3.38
2023-09-22T01:14:41.654Z,3.47
2023-09-22T01:17:08.914Z,3.85
2023-09-22T01:19:37.177Z,3.80
2023-09-22T01:22:05.539Z,3.25
2023-09-22T01:24:32.748Z,3.33
2023-09-22T01:26:59.905Z,3.58
2023-09-22T01:29:27.084Z,3.90
2023-09-22T01:31:54.196Z,4.13
2023-09-22T01:34:21.677Z,3.90
2023-09-22T01:36:48.951Z,3.67
2023-09-22T01:39:17.611Z,3.53
2023-09-22T01:41:44.840Z,3.75
2023-09-22T01:44:14.680Z,3.60
2023-09-22T01:46:42.762Z,3.97
2023-09-22T01:49:09.768Z,3.72
2023-09-22T01:51:40.116Z,3.78
2023-09-22T01:54:07.349Z,4.47
2023-09-22T01:56:35.288Z,3.72
2023-09-22T01:59:02.427Z,3.55
2023-09-22T02:01:29.464Z,3.75
2023-09-22T02:03:56.755Z,4.10
2023-09-22T02:06:24.000Z,4.25
2023-09-22T02:08:51.019Z,3.78
2023-09-22T02:11:18.935Z,4.18
2023-09-22T02:13:45.960Z,4.13
2023-09-22T02:16:13.798Z,3.80
2023-09-22T02:18:40.856Z,3.67
2023-09-22T02:21:08.439Z,3.92
2023-09-22T02:23:37.250Z,4.00
2023-09-22T02:26:08.085Z,3.95
2023-09-22T02:28:35.730Z,3.50
2023-09-22T02:31:03.566Z,4.30
2023-09-22T02:33:30.884Z,3.67
2023-09-22T02:36:00.210Z,4.28
2023-09-22T02:38:27.881Z,3.92
2023-09-22T02:40:54.963Z,4.38
2023-09-22T02:43:21.956Z,4.47
2023-09-22T02:45:49.095Z,4.82
2023-09-22T02:48:16.302Z,4.35
2023-09-22T02:50:43.576Z,4.35
2023-09-22T02:53:10.687Z,4.68
2023-09-22T02:55:40.429Z,4.30
2023-09-22T02:58:07.413Z,4.10
2023-09-22T03:00:35.413Z,3.65
2023-09-22T03:03:02.702Z,3.70
2023-09-22T03:05:31.982Z,3.80
2023-09-22T03:07:59.345Z,4.13
2023-09-22T03:10:26.825Z,3.60
2023-09-22T03:12:54.697Z,3.63
2023-09-22T03:15:23.552Z,3.35
2023-09-22T03:17:50.819Z,3.03
2023-09-22T03:20:18.908Z,3.05
2023-09-22T03:22:47.159Z,3.17
2023-09-22T03:25:15.735Z,3.13
2023-09-22T03:27:43.957Z,3.35
2023-09-22T03:30:13.138Z,2.55
2023-09-22T03:32:42.495Z,2.90
2023-09-22T03:35:13.243Z,2.70
2023-09-22T03:37:41.700Z,2.63
2023-09-22T03:40:16.929Z,2.95
2023-09-22T03:42:45.961Z,2.67
2023-09-22T03:45:13.849Z,2.58
2023-09-22T03:47:41.809Z,2.90
2023-09-22T03:50:09.853Z,3.03
2023-09-22T03:52:37.707Z,2.60
2023-09-22T03:55:05.648Z,2.58
2023-09-22T03:57:32.734Z,2.80
2023-09-22T03:59:59.895Z,2.63
2023-09-22T04:02:30.526Z,2.75
2023-09-22T04:04:58.003Z,2.60
2023-09-22T04:07:25.644Z,2.70
2023-09-22T04:09:53.779Z,3.25
2023-09-22T04:12:20.831Z,2.70
2023-09-22T04:14:48.118Z,2.92
2023-09-22T04:17:15.197Z,2.65
2023-09-22T04:19:43.108Z,3.03
2023-09-22T04:22:12.697Z,3.20
2023-09-22T04:24:48.373Z,3.00
2023-09-22T04:27:15.903Z,2.70
2023-09-22T04:29:43.233Z,2.60
2023-09-22T04:32:10.243Z,2.65
2023-09-22T04:34:37.333Z,3.45
2023-09-22T04:37:06.062Z,2.90
2023-09-22T04:39:34.332Z,2.65
2023-09-22T04:42:02.539Z,3.00
2023-09-22T04:44:29.752Z,3.00
2023-09-22T04:46:57.070Z,2.70
2023-09-22T04:49:24.411Z,2.75
2023-09-22T04:51:53.509Z,3.10
2023-09-22T04:54:21.155Z,2.53
2023-09-22T04:56:49.102Z,2.53
2023-09-22T04:59:19.173Z,3.00
2023-09-22T05:01:46.381Z,2.70
2023-09-22T05:04:13.569Z,2.83
2023-09-22T05:06:40.732Z,2.92
2023-09-22T05:09:10.535Z,2.80
2023-09-22T05:11:37.597Z,2.67
2023-09-22T05:14:07.495Z,2.38
2023-09-22T05:16:34.721Z,2.83
2023-09-22T05:19:01.897Z,2.95
2023-09-22T05:21:29.195Z,3.13
2023-09-22T05:23:56.214Z,3.03
2023-09-22T05:26:23.499Z,2.95
2023-09-22T05:28:50.638Z,3.17
2023-09-22T05:31:20.922Z,2.80
2023-09-22T05:33:48.507Z,2.90
2023-09-22T05:36:15.801Z,2.97
2023-09-22T05:38:46.102Z,3.10
2023-09-22T05:41:13.320Z,2.60
2023-09-22T05:43:41.408Z,2.63
2023-09-22T05:46:08.706Z,2.85
2023-09-22T05:48:36.063Z,2.90
2023-09-22T05:51:03.513Z,2.67
2023-09-22T05:53:31.338Z,2.72
2023-09-22T05:56:04.739Z,3.10
2023-09-22T05:58:31.932Z,2.95
2023-09-22T06:01:00.213Z,2.92
2023-09-22T06:03:31.260Z,3.20
2023-09-22T06:05:58.739Z,3.10
2023-09-22T06:08:26.048Z,2.92
2023-09-22T06:10:53.071Z,2.83
2023-09-22T06:13:20.133Z,2.92
2023-09-22T06:15:48.752Z,2.70
2023-09-22T06:18:20.155Z,2.55
2023-09-22T06:20:48.434Z,2.85
2023-09-22T06:23:15.479Z,2.50
2023-09-22T06:26:05.566Z,2.70
2023-09-22T06:28:33.883Z,2.85
2023-09-22T06:31:02.424Z,2.90
2023-09-22T06:33:33.325Z,3.03
2023-09-22T06:36:03.103Z,3.30
2023-09-22T06:38:34.529Z,3.08
2023-09-22T06:41:05.867Z,3.08
2023-09-22T06:43:35.085Z,3.25
2023-09-22T06:46:06.224Z,3.17
2023-09-22T06:48:33.897Z,3.55
2023-09-22T06:51:02.160Z,3.63
2023-09-22T06:53:31.006Z,3.15
2023-09-22T06:56:10.698Z,3.15
2023-09-22T06:58:41.885Z,3.58
2023-09-22T07:01:15.238Z,3.25
2023-09-22T07:03:44.253Z,3.00
2023-09-22T07:06:15.073Z,2.90
2023-09-22T07:08:46.707Z,2.67
2023-09-22T07:11:20.262Z,2.75
2023-09-22T07:13:57.382Z,2.42
2023-09-22T07:16:24.918Z,2.53
2023-09-22T07:18:52.056Z,2.30
2023-09-22T07:21:19.100Z,2.53
2023-09-22T07:23:46.179Z,2.60
2023-09-22T07:26:15.691Z,2.45
2023-09-22T07:28:43.340Z,2.42
2023-09-22T07:31:15.066Z,2.47
2023-09-22T07:33:47.187Z,2.80
2023-09-22T07:36:16.924Z,2.22
2023-09-22T07:38:50.547Z,2.80
2023-09-22T07:41:17.746Z,2.83
2023-09-22T07:43:44.921Z,2.58
2023-09-22T07:46:12.201Z,3.08
2023-09-22T07:48:39.513Z,3.30
2023-09-22T07:51:07.019Z,2.65
2023-09-22T07:53:34.434Z,3.00
2023-09-22T07:56:01.614Z,2.70
2023-09-22T07:58:32.015Z,2.95
2023-09-22T08:01:01.716Z,2.90
2023-09-22T08:03:40.290Z,2.95
2023-09-22T08:06:13.684Z,2.90
2023-09-22T08:08:48.194Z,2.83
2023-09-22T08:11:15.447Z,3.08
2023-09-22T08:13:44.702Z,3.17
2023-09-22T08:16:11.858Z,2.90
2023-09-22T08:18:44.380Z,2.78
2023-09-22T08:21:12.799Z,3.22
2023-09-22T08:23:48.888Z,3.00
2023-09-22T08:26:21.452Z,3.30
2023-09-22T08:28:48.901Z,3.60
2023-09-22T08:31:23.663Z,4.07
2023-09-22T08:33:53.101Z,3.90
2023-09-22T08:36:23.896Z,4.20
2023-09-22T08:38:53.604Z,4.10
2023-09-22T08:41:25.133Z,3.65
2023-09-22T08:43:52.223Z,4.00
2023-09-22T08:46:28.135Z,3.63
2023-09-22T08:48:56.371Z,3.42
2023-09-22T08:51:23.905Z,3.25
2023-09-22T08:53:56.769Z,3.47
2023-09-22T08:56:25.565Z,4.03
2023-09-22T08:58:55.078Z,4.15
2023-09-22T09:01:22.348Z,4.38
2023-09-22T09:03:50.253Z,4.07
2023-09-22T09:09:50.030Z,4.55
2023-09-22T09:12:19.989Z,4.18
2023-09-22T09:14:50.829Z,4.90
2023-09-22T09:17:40.156Z,4.90
2023-09-22T09:20:16.114Z,4.60
2023-09-22T09:22:48.660Z,3.85
2023-09-22T09:25:16.130Z,3.85
2023-09-22T09:27:45.043Z,3.92
2023-09-22T09:30:16.729Z,3.90
2023-09-22T09:32:46.171Z,3.75
2023-09-22T09:35:39.765Z,3.83
2023-09-22T09:38:17.632Z,3.72
2023-09-22T09:40:45.297Z,3.97
2023-09-22T09:43:17.155Z,3.90
2023-09-22T09:45:48.124Z,4.28
2023-09-22T09:48:18.073Z,3.80
2023-09-22T09:50:55.492Z,4.32
2023-09-22T09:53:46.493Z,3.97
2023-09-22T09:56:20.000Z,4.32
2023-09-22T09:58:52.927Z,3.80
2023-09-22T10:01:46.188Z,4.40
2023-09-22T10:04:25.098Z,3.60
2023-09-22T10:06:54.610Z,3.30
2023-09-22T10:09:24.088Z,3.90
2023-09-22T10:11:52.392Z,3.65
2023-09-22T10:14:48.791Z,3.92
2023-09-22T10:17:24.093Z,3.53
2023-09-22T10:19:51.884Z,3.80
2023-09-22T10:22:19.419Z,4.00
2023-09-22T10:24:56.562Z,4.00
2023-09-22T10:27:28.197Z,3.40
2023-09-22T10:29:55.674Z,3.35
2023-09-22T10:32:24.697Z,3.15
2023-09-22T10:35:12.058Z,4.03
2023-09-22T10:38:07.799Z,3.72
2023-09-22T10:40:36.370Z,3.97
2023-09-22T10:43:04.770Z,4.28
2023-09-22T10:45:31.876Z,3.88
2023-09-22T10:48:01.512Z,3.80
2023-09-22T10:54:06.678Z,4.00
2023-09-22T10:56:36.985Z,3.88
2023-09-22T10:59:05.085Z,3.58
2023-09-22T11:01:49.127Z,4.72
2023-09-22T11:04:19.466Z,3.60
2023-09-22T11:06:49.362Z,3.80
2023-09-22T11:09:16.538Z,3.70
2023-09-22T11:11:46.775Z,3.70
2023-09-22T11:14:14.224Z,3.55
2023-09-22T11:16:49.499Z,3.72
2023-09-22T11:19:16.825Z,4.20
2023-09-22T11:21:48.519Z,3.80
2023-09-22T11:24:21.313Z,3.50
2023-09-22T11:30:15.494Z,3.75
2023-09-22T11:35:52.862Z,3.22
2023-09-22T12:34:08.129Z,3.47
2023-09-22T12:37:10.541Z,3.25
2023-09-22T12:39:44.228Z,3.17
2023-09-22T12:52:31.498Z,3.50
2023-09-22T12:54:59.969Z,3.17
2023-09-22T12:57:29.391Z,3.53
2023-09-22T12:59:58.544Z,3.80
2023-09-22T13:02:25.930Z,3.15
2023-09-22T13:04:54.578Z,3.80
2023-09-22T13:07:25.128Z,3.42
2023-09-22T13:16:03.944Z,3.58
2023-09-22T13:18:32.680Z,3.65
2023-09-22T13:21:02.492Z,4.22
2023-09-22T13:23:31.198Z,3.90
2023-09-22T13:26:26.026Z,4.10
2023-09-22T13:28:56.993Z,4.13
2023-09-22T13:31:30.472Z,3.03
2023-09-22T13:33:58.513Z,4.40
2023-09-22T13:36:25.963Z,4.80
2023-09-22T13:38:55.478Z,4.93
2023-09-22T13:41:24.443Z,4.75
2023-09-22T13:43:51.874Z,4.20
2023-09-22T13:46:20.353Z,4.00
2023-09-22T13:48:48.006Z,4.10
2023-09-22T13:51:15.825Z,4.18
2023-09-22T13:53:48.514Z,4.53
2023-09-22T13:56:19.969Z,4.90
2023-09-22T13:58:55.457Z,4.90
2023-09-22T14:01:23.062Z,4.80
2023-09-22T14:03:51.984Z,4.47
2023-09-22T14:06:22.908Z,4.38
2023-09-22T14:08:53.194Z,4.00
2023-09-22T14:11:24.778Z,4.50
2023-09-22T14:13:52.267Z,4.65
2023-09-22T14:16:30.112Z,4.78
2023-09-22T14:19:48.092Z,3.90
2023-09-22T14:22:15.581Z,4.15
2023-09-22T14:24:45.022Z,4.55
2023-09-22T14:27:12.166Z,3.92
2023-09-22T14:29:39.345Z,3.80
2023-09-22T14:32:07.295Z,4.10
2023-09-22T14:34:41.150Z,4.10
2023-09-22T14:37:28.294Z,3.80
2023-09-22T14:55:13.309Z,4.53
2023-09-22T15:00:59.952Z,4.80
2023-09-22T15:03:48.818Z,4.65
2023-09-22T15:06:36.645Z,4.43
2023-09-22T15:09:32.008Z,4.20
2023-09-22T15:13:03.656Z,4.63
2023-09-22T15:18:51.322Z,5.25
2023-09-22T15:29:21.563Z,5.72
2023-09-22T15:32:27.746Z,5.47
2023-09-22T15:35:08.602Z,4.55
2023-09-22T15:37:40.296Z,5.32
2023-09-22T15:40:55.637Z,5.22
2023-09-22T15:49:59.742Z,5.53
2023-09-22T15:52:44.600Z,4.32
2023-09-22T15:55:20.662Z,5.03
2023-09-22T15:58:10.901Z,4.95
2023-09-22T16:00:48.756Z,5.05
2023-09-22T16:03:19.319Z,5.32
2023-09-22T16:05:51.280Z,4.50
2023-09-22T16:08:48.243Z,4.75
2023-09-22T16:12:54.292Z,4.22
2023-09-22T16:22:19.158Z,4.80
2023-09-22T16:29:07.437Z,4.72
2023-09-22T16:38:38.266Z,5.10
2023-09-22T16:44:39.323Z,5.80
2023-09-22T17:18:37.218Z,5.50
2023-09-22T17:21:25.410Z,4.78
2023-09-22T17:24:31.634Z,5.45
2023-09-22T17:27:31.644Z,5.03
2023-09-22T17:30:11.997Z,4.97
2023-09-22T17:44:15.344Z,5.45
2023-09-22T17:50:05.281Z,5.25
2023-09-22T17:53:43.059Z,5.47
2023-09-22T17:57:03.925Z,5.88
2023-09-22T18:03:02.294Z,8.07
2023-09-22T18:12:24.322Z,5.80
2023-09-22T18:14:59.096Z,5.50
2023-09-22T18:17:33.965Z,5.63
2023-09-22T18:20:01.734Z,5.70
2023-09-22T18:22:30.344Z,5.20
2023-09-22T18:25:01.109Z,5.63
2023-09-22T18:27:41.261Z,5.18
2023-09-22T18:30:09.240Z,5.20
2023-09-22T18:32:37.745Z,5.50
2023-09-22T18:35:06.037Z,6.53
2023-09-22T18:37:33.538Z,5.75
2023-09-22T18:40:15.736Z,5.35
2023-09-22T18:42:45.663Z,5.80
2023-09-22T18:45:17.504Z,5.70
2023-09-22T18:47:47.691Z,5.72
2023-09-22T18:50:18.410Z,5.57
2023-09-22T18:52:48.822Z,5.25
2023-09-22T18:55:19.048Z,4.65
2023-09-22T18:57:56.627Z,5.07
2023-09-22T19:00:27.032Z,4.47
2023-09-22T19:03:37.879Z,4.80
2023-09-22T19:06:06.139Z,4.68
2023-09-22T19:08:44.180Z,4.95
2023-09-22T19:11:15.942Z,4.53
2023-09-22T19:13:54.300Z,4.72
2023-09-22T19:16:26.163Z,5.10
2023-09-22T19:18:59.769Z,3.78
2023-09-22T19:21:38.528Z,4.47
2023-09-22T19:24:12.022Z,4.40
2023-09-22T19:26:50.686Z,4.18
2023-09-22T19:29:19.882Z,3.90
2023-09-22T19:31:52.477Z,4.05
2023-09-22T19:34:22.645Z,4.18
2023-09-22T19:36:51.089Z,4.07
2023-09-22T19:39:25.129Z,3.97
2023-09-22T19:42:19.906Z,3.70
2023-09-22T19:45:08.957Z,3.85
2023-09-22T19:47:53.011Z,3.92
2023-09-22T19:50:41.304Z,4.32
2023-09-22T19:53:28.313Z,4.60
2023-09-22T19:59:00.994Z,3.72
2023-09-22T20:01:52.110Z,3.67
2023-09-22T20:04:30.731Z,4.00
2023-09-22T20:07:11.188Z,4.03
2023-09-22T20:09:46.610Z,3.95
2023-09-22T20:12:21.074Z,3.88
2023-09-22T20:14:51.582Z,4.07
2023-09-22T20:17:34.867Z,3.78
2023-09-22T20:20:14.854Z,3.95
2023-09-22T20:22:42.548Z,4.07
2023-09-22T20:25:11.436Z,4.20
2023-09-22T20:27:42.714Z,4.07
2023-09-22T20:30:16.404Z,3.60
2023-09-22T20:32:44.838Z,4.00
2023-09-22T20:35:22.446Z,3.67
2023-09-22T20:37:58.035Z,3.80
2023-09-22T20:40:26.195Z,3.83
2023-09-22T20:42:59.540Z,4.00
2023-09-22T20:45:28.231Z,3.80
2023-09-22T20:47:58.090Z,3.60
2023-09-22T20:50:28.079Z,3.50
2023-09-22T20:52:58.277Z,3.30
2023-09-22T20:55:25.480Z,3.30
2023-09-22T20:57:55.432Z,3.63
2023-09-22T21:00:26.455Z,3.97
2023-09-22T21:03:00.182Z,3.88
2023-09-22T21:05:38.444Z,3.67
2023-09-22T21:08:10.730Z,3.22
2023-09-22T21:10:39.135Z,3.42
2023-09-22T21:13:10.202Z,3.90
2023-09-22T21:15:37.398Z,3.42
2023-09-22T21:18:07.393Z,3.28
2023-09-22T21:20:34.758Z,3.15
2023-09-22T21:23:06.587Z,2.90
2023-09-22T21:25:33.701Z,2.90
2023-09-22T21:28:00.740Z,3.10
2023-09-22T21:30:29.062Z,2.92
2023-09-22T21:32:56.618Z,2.80
2023-09-22T21:35:27.045Z,2.40
2023-09-22T21:37:54.607Z,2.50
2023-09-22T21:40:22.285Z,2.40
2023-09-22T21:42:49.391Z,2.08
2023-09-22T21:45:17.421Z,2.05
2023-09-22T21:47:45.222Z,2.30
2023-09-22T21:50:12.421Z,2.67
2023-09-22T21:52:39.503Z,2.45
2023-09-22T21:55:15.061Z,1.98
2023-09-22T21:57:42.871Z,2.15
2023-09-22T22:00:13.793Z,2.30
2023-09-22T22:02:41.023Z,2.33
2023-09-22T22:05:17.880Z,1.67
2023-09-22T22:07:46.784Z,2.40
2023-09-22T22:10:15.927Z,1.85
2023-09-22T22:12:43.816Z,1.95
2023-09-22T22:15:13.335Z,2.63
2023-09-22T22:17:40.523Z,2.22
2023-09-22T22:20:16.758Z,2.00
2023-09-22T22:22:46.019Z,2.05
2023-09-22T22:25:15.326Z,2.55
2023-09-22T22:27:42.745Z,2.20
2023-09-22T22:30:10.240Z,1.98
2023-09-22T22:32:37.594Z,2.13
2023-09-22T22:35:05.296Z,1.95
2023-09-22T22:37:32.650Z,2.22
2023-09-22T22:39:59.767Z,1.98
2023-09-22T22:42:28.328Z,2.10
2023-09-22T22:44:55.420Z,1.80
2023-09-22T22:47:22.631Z,1.70
2023-09-22T22:49:50.670Z,2.15
2023-09-22T22:52:18.340Z,1.73
2023-09-22T22:54:49.390Z,1.77
2023-09-22T22:57:22.762Z,1.75
2023-09-22T22:59:51.372Z,1.48
2023-09-22T23:02:21.669Z,1.90
2023-09-22T23:04:52.677Z,1.60
2023-09-22T23:07:35.503Z,1.95
2023-09-22T23:10:08.142Z,1.60
2023-09-22T23:12:38.405Z,1.83
2023-09-22T23:15:07.349Z,1.60
2023-09-22T23:17:34.698Z,1.80
2023-09-22T23:20:01.855Z,1.35
2023-09-22T23:22:32.935Z,1.50
2023-09-22T23:25:00.031Z,1.67
2023-09-22T23:27:27.332Z,1.60
2023-09-22T23:29:56.176Z,1.42
2023-09-22T23:32:23.641Z,1.65
2023-09-22T23:34:51.676Z,1.65
2023-09-22T23:37:20.772Z,1.45
2023-09-22T23:39:50.257Z,1.80
2023-09-22T23:42:21.771Z,1.77
2023-09-22T23:44:52.834Z,1.40
2023-09-22T23:47:21.558Z,1.75
2023-09-22T23:49:50.247Z,1.30
2023-09-22T23:52:21.067Z,1.40
2023-09-22T23:54:48.601Z,1.53
2023-09-22T23:57:18.372Z,1.58
2023-09-22T23:59:50.116Z,1.80
